createdAt,value
2017-12-17T00:00:53.414Z,2.90
2017-12-17T00:01:53.294Z,3.10
2017-12-17T00:02:53.384Z,2.30
2017-12-17T00:03:53.347Z,1.40
2017-12-17T00:04:53.418Z,2.70
2017-12-17T00:05:53.350Z,2.50
2017-12-17T00:06:53.419Z,2.30
2017-12-17T00:07:53.423Z,2.00
2017-12-17T00:08:53.347Z,2.50
2017-12-17T00:09:53.390Z,2.50
2017-12-17T00:10:53.424Z,2.30
2017-12-17T00:11:53.426Z,3.30
2017-12-17T00:12:53.345Z,2.00
2017-12-17T00:13:53.424Z,2.20
2017-12-17T00:14:53.426Z,2.00
2017-12-17T00:15:53.347Z,1.30
2017-12-17T00:16:53.424Z,1.90
2017-12-17T00:17:53.353Z,2.10
2017-12-17T00:18:53.427Z,3.30
2017-12-17T00:19:53.357Z,2.90
2017-12-17T00:20:53.353Z,2.10
2017-12-17T00:21:53.354Z,2.10
2017-12-17T00:22:53.429Z,2.70
2017-12-17T00:23:53.356Z,2.10
2017-12-17T00:24:53.431Z,1.90
2017-12-17T00:25:53.363Z,2.50
2017-12-17T00:26:53.432Z,1.70
2017-12-17T00:27:53.366Z,2.30
2017-12-17T00:28:53.434Z,1.70
2017-12-17T00:29:53.362Z,1.90
2017-12-17T00:30:53.433Z,1.60
2017-12-17T00:31:53.442Z,1.60
2017-12-17T00:32:53.361Z,2.70
2017-12-17T00:33:53.396Z,1.60
2017-12-17T00:34:53.362Z,1.70
2017-12-17T00:35:53.317Z,0.80
2017-12-17T00:36:53.396Z,0.70
2017-12-17T00:37:53.331Z,1.30
2017-12-17T00:38:53.413Z,2.10
2017-12-17T00:39:53.400Z,1.90
2017-12-17T00:40:53.415Z,1.00
2017-12-17T00:41:53.328Z,0.40
2017-12-17T00:42:53.368Z,0.70
2017-12-17T00:43:53.443Z,1.30
2017-12-17T00:44:53.368Z,1.30
2017-12-17T00:45:53.443Z,1.40
2017-12-17T00:46:53.376Z,1.60
2017-12-17T00:47:53.443Z,0.80
2017-12-17T00:48:53.375Z,1.40
2017-12-17T00:49:53.374Z,1.30
2017-12-17T00:50:53.447Z,1.20
2017-12-17T00:51:53.504Z,0.30
2017-12-17T00:52:53.445Z,1.40
2017-12-17T00:53:53.317Z,1.10
2017-12-17T00:54:53.370Z,1.20
2017-12-17T00:55:53.376Z,0.70
2017-12-17T00:56:53.412Z,1.30
2017-12-17T00:57:53.414Z,1.40
2017-12-17T00:58:53.375Z,0.30
2017-12-17T00:59:53.413Z,0.70
2017-12-17T01:00:53.386Z,1.60
2017-12-17T01:01:53.413Z,1.60
2017-12-17T01:02:53.414Z,1.60
2017-12-17T01:03:53.386Z,1.90
2017-12-17T01:04:53.397Z,1.30
2017-12-17T01:05:53.391Z,1.90
2017-12-17T01:06:53.333Z,2.70
2017-12-17T01:07:53.283Z,2.30
2017-12-17T01:08:53.286Z,1.60
2017-12-17T01:09:53.386Z,1.30
2017-12-17T01:10:53.309Z,0.70
2017-12-17T01:11:53.330Z,0.80
2017-12-17T01:12:53.382Z,0.60
2017-12-17T01:13:53.464Z,1.30
2017-12-17T01:14:53.391Z,1.40
2017-12-17T01:15:53.462Z,0.40
2017-12-17T01:16:53.386Z,1.10
2017-12-17T01:17:53.462Z,1.00
2017-12-17T01:18:53.387Z,0.60
2017-12-17T01:19:53.463Z,1.10
2017-12-17T01:20:53.395Z,0.80
2017-12-17T01:21:53.465Z,2.00
2017-12-17T01:22:53.438Z,1.90
2017-12-17T01:23:53.465Z,0.70
2017-12-17T01:24:53.392Z,1.70
2017-12-17T01:25:53.390Z,2.50
2017-12-17T01:26:53.393Z,1.70
2017-12-17T01:27:53.397Z,1.40
2017-12-17T01:28:53.471Z,2.30
2017-12-17T01:29:53.396Z,1.40
2017-12-17T01:30:53.469Z,2.90
2017-12-17T01:31:53.393Z,2.70
2017-12-17T01:32:53.398Z,2.50
2017-12-17T01:33:53.401Z,2.50
2017-12-17T01:34:53.431Z,3.10
2017-12-17T01:35:53.434Z,2.10
2017-12-17T01:36:53.326Z,3.80
2017-12-17T01:37:53.323Z,3.70
2017-12-17T01:38:53.428Z,3.30
2017-12-17T01:39:53.325Z,2.10
2017-12-17T01:40:53.341Z,2.50
2017-12-17T01:41:53.431Z,2.70
2017-12-17T01:42:53.374Z,2.30
2017-12-17T01:43:53.642Z,2.90
2017-12-17T01:44:53.351Z,1.60
2017-12-17T01:45:53.349Z,2.10
2017-12-17T01:46:53.461Z,2.30
2017-12-17T01:47:53.473Z,1.70
2017-12-17T01:48:53.479Z,1.60
2017-12-17T01:49:53.445Z,2.70
2017-12-17T01:50:53.519Z,3.70
2017-12-17T01:51:53.474Z,3.30
2017-12-17T01:52:53.382Z,3.90
2017-12-17T01:53:53.482Z,4.50
2017-12-17T01:54:53.448Z,3.10
2017-12-17T01:55:53.387Z,3.10
2017-12-17T01:56:53.429Z,3.50
2017-12-17T01:57:53.362Z,3.30
2017-12-17T01:58:53.364Z,3.60
2017-12-17T01:59:53.408Z,3.90
2017-12-17T02:00:53.478Z,2.50
2017-12-17T02:01:53.367Z,1.40
2017-12-17T02:02:53.363Z,2.50
2017-12-17T02:03:53.421Z,2.30
2017-12-17T02:04:53.489Z,2.30
2017-12-17T02:05:53.416Z,1.90
2017-12-17T02:06:53.499Z,2.90
2017-12-17T02:07:53.418Z,2.10
2017-12-17T02:08:53.419Z,2.50
2017-12-17T02:09:53.493Z,3.30
2017-12-17T02:10:53.456Z,2.30
2017-12-17T02:11:53.494Z,3.20
2017-12-17T02:12:53.420Z,2.30
2017-12-17T02:13:53.497Z,2.50
2017-12-17T02:14:53.425Z,3.30
2017-12-17T02:15:53.497Z,2.70
2017-12-17T02:16:53.424Z,2.30
2017-12-17T02:17:53.496Z,2.50
2017-12-17T02:18:53.429Z,2.00
2017-12-17T02:19:53.433Z,1.90
2017-12-17T02:20:53.501Z,1.40
2017-12-17T02:21:53.429Z,2.80
2017-12-17T02:22:53.499Z,1.90
2017-12-17T02:23:53.428Z,1.90
2017-12-17T02:24:53.501Z,2.10
2017-12-17T02:25:53.430Z,1.90
2017-12-17T02:26:53.502Z,0.90
2017-12-17T02:27:53.432Z,1.80
2017-12-17T02:28:53.502Z,2.40
2017-12-17T02:29:53.434Z,3.30
2017-12-17T02:30:53.507Z,2.80
2017-12-17T02:31:53.433Z,3.50
2017-12-17T02:32:53.588Z,3.20
2017-12-17T02:33:53.433Z,3.00
2017-12-17T02:34:53.510Z,2.80
2017-12-17T02:35:53.436Z,3.60
2017-12-17T02:36:53.510Z,2.80
2017-12-17T02:37:53.443Z,3.00
2017-12-17T02:38:53.514Z,2.40
2017-12-17T02:39:53.445Z,3.00
2017-12-17T02:40:53.512Z,3.20
2017-12-17T02:41:53.448Z,2.60
2017-12-17T02:42:53.515Z,3.50
2017-12-17T02:43:53.437Z,3.50
2017-12-17T02:44:53.516Z,2.80
2017-12-17T02:45:53.516Z,3.70
2017-12-17T02:46:53.441Z,5.00
2017-12-17T02:47:53.513Z,3.30
2017-12-17T02:48:53.442Z,5.00
2017-12-17T02:49:53.517Z,3.10
2017-12-17T02:50:53.452Z,3.30
2017-12-17T02:51:53.517Z,2.90
2017-12-17T02:52:53.445Z,1.90
2017-12-17T02:53:53.445Z,2.40
2017-12-17T02:54:53.487Z,2.10
2017-12-17T02:55:53.421Z,2.50
2017-12-17T02:56:53.515Z,2.20
2017-12-17T02:57:53.510Z,1.60
2017-12-17T02:58:53.488Z,2.50
2017-12-17T02:59:53.467Z,2.40
2017-12-17T03:00:53.423Z,2.30
2017-12-17T03:01:53.507Z,1.30
2017-12-17T03:02:53.401Z,1.40
2017-12-17T03:03:53.403Z,1.60
2017-12-17T03:04:53.450Z,2.80
2017-12-17T03:05:53.527Z,3.30
2017-12-17T03:06:53.452Z,2.80
2017-12-17T03:07:53.527Z,2.90
2017-12-17T03:08:53.462Z,4.50
2017-12-17T03:09:53.528Z,3.50
2017-12-17T03:10:53.462Z,3.50
2017-12-17T03:11:53.531Z,2.10
2017-12-17T03:12:53.492Z,3.00
2017-12-17T03:13:53.531Z,2.50
2017-12-17T03:14:53.458Z,3.10
2017-12-17T03:15:53.529Z,2.20
2017-12-17T03:16:53.533Z,2.10
2017-12-17T03:17:53.454Z,3.70
2017-12-17T03:18:53.462Z,3.10
2017-12-17T03:19:53.533Z,2.60
2017-12-17T03:20:53.465Z,4.50
2017-12-17T03:21:53.535Z,2.40
2017-12-17T03:22:53.462Z,5.90
2017-12-17T03:23:53.534Z,4.20
2017-12-17T03:24:53.500Z,2.60
2017-12-17T03:25:53.499Z,2.60
2017-12-17T03:26:53.423Z,2.80
2017-12-17T03:27:53.538Z,4.20
2017-12-17T03:28:53.406Z,3.70
2017-12-17T03:29:53.403Z,3.50
2017-12-17T03:30:53.408Z,2.20
2017-12-17T03:31:53.473Z,1.90
2017-12-17T03:32:53.393Z,2.20
2017-12-17T03:33:53.475Z,3.20
2017-12-17T03:34:53.546Z,2.40
2017-12-17T03:35:53.539Z,4.10
2017-12-17T03:36:53.468Z,5.20
2017-12-17T03:37:53.547Z,4.70
2017-12-17T03:38:53.481Z,2.80
2017-12-17T03:39:53.556Z,3.50
2017-12-17T03:40:53.473Z,3.30
2017-12-17T03:41:53.549Z,3.20
2017-12-17T03:42:53.479Z,3.90
2017-12-17T03:43:53.550Z,2.40
2017-12-17T03:44:53.554Z,2.40
2017-12-17T03:45:53.490Z,3.70
2017-12-17T03:46:53.552Z,2.40
2017-12-17T03:47:53.590Z,3.50
2017-12-17T03:48:53.484Z,3.70
2017-12-17T03:49:53.481Z,2.80
2017-12-17T03:50:53.552Z,4.20
2017-12-17T03:51:53.483Z,3.90
2017-12-17T03:52:53.556Z,3.90
2017-12-17T03:53:53.527Z,3.20
2017-12-17T03:54:53.424Z,3.20
2017-12-17T03:55:53.513Z,5.20
2017-12-17T03:56:53.424Z,3.90
2017-12-17T03:57:53.516Z,3.50
2017-12-17T03:58:53.500Z,3.00
2017-12-17T03:59:53.484Z,3.40
2017-12-17T04:00:53.516Z,3.90
2017-12-17T04:01:53.462Z,3.40
2017-12-17T04:02:53.393Z,3.40
2017-12-17T04:03:53.524Z,2.60
2017-12-17T04:04:53.506Z,4.20
2017-12-17T04:05:53.489Z,3.70
2017-12-17T04:06:53.506Z,4.50
2017-12-17T04:07:53.510Z,3.20
2017-12-17T04:08:53.508Z,3.70
2017-12-17T04:09:53.554Z,3.70
2017-12-17T04:10:53.564Z,4.40
2017-12-17T04:11:53.509Z,4.20
2017-12-17T04:12:53.512Z,4.10
2017-12-17T04:13:53.444Z,3.90
2017-12-17T04:14:53.469Z,2.80
2017-12-17T04:15:53.549Z,3.00
2017-12-17T04:16:53.519Z,2.40
2017-12-17T04:17:53.451Z,3.50
2017-12-17T04:18:53.537Z,3.50
2017-12-17T04:19:53.479Z,3.70
2017-12-17T04:20:53.469Z,4.00
2017-12-17T04:21:53.448Z,3.30
2017-12-17T04:22:53.518Z,3.50
2017-12-17T04:23:53.571Z,2.40
2017-12-17T04:24:53.489Z,4.70
2017-12-17T04:25:53.572Z,3.70
2017-12-17T04:26:53.539Z,4.20
2017-12-17T04:27:53.565Z,3.50
2017-12-17T04:28:53.575Z,2.80
2017-12-17T04:29:53.558Z,4.20
2017-12-17T04:30:53.544Z,2.60
2017-12-17T04:31:53.563Z,3.20
2017-12-17T04:32:53.526Z,3.00
2017-12-17T04:33:53.483Z,2.50
2017-12-17T04:34:53.509Z,3.30
2017-12-17T04:35:53.527Z,2.20
2017-12-17T04:36:53.545Z,3.20
2017-12-17T04:37:53.543Z,1.90
2017-12-17T04:38:53.449Z,2.80
2017-12-17T04:39:53.490Z,2.80
2017-12-17T04:40:53.562Z,1.70
2017-12-17T04:41:53.546Z,2.80
2017-12-17T04:42:53.528Z,2.80
2017-12-17T04:43:53.454Z,2.60
2017-12-17T04:44:53.516Z,2.80
2017-12-17T04:45:53.591Z,2.30
2017-12-17T04:46:53.518Z,2.10
2017-12-17T04:47:53.588Z,3.70
2017-12-17T04:48:53.588Z,3.30
2017-12-17T04:49:53.590Z,3.10
2017-12-17T04:50:53.514Z,3.50
2017-12-17T04:51:53.590Z,3.30
2017-12-17T04:52:53.522Z,2.70
2017-12-17T04:53:53.593Z,3.10
2017-12-17T04:54:53.577Z,2.30
2017-12-17T04:55:53.580Z,1.90
2017-12-17T04:56:53.497Z,2.30
2017-12-17T04:57:53.563Z,2.70
2017-12-17T04:58:53.563Z,2.70
2017-12-17T04:59:53.594Z,3.00
2017-12-17T05:00:53.494Z,2.10
2017-12-17T05:01:53.586Z,2.80
2017-12-17T05:02:53.595Z,3.50
2017-12-17T05:03:53.526Z,2.60
2017-12-17T05:04:53.527Z,2.60
2017-12-17T05:05:53.598Z,2.80
2017-12-17T05:06:53.531Z,3.50
2017-12-17T05:07:53.601Z,2.80
2017-12-17T05:08:53.559Z,4.20
2017-12-17T05:09:53.601Z,3.70
2017-12-17T05:10:53.586Z,5.00
2017-12-17T05:11:53.533Z,5.00
2017-12-17T05:12:53.603Z,5.60
2017-12-17T05:13:53.534Z,3.10
2017-12-17T05:14:53.603Z,3.10
2017-12-17T05:15:53.532Z,2.10
2017-12-17T05:16:53.604Z,2.70
2017-12-17T05:17:53.629Z,4.00
2017-12-17T05:18:53.537Z,2.90
2017-12-17T05:19:53.607Z,3.70
2017-12-17T05:20:53.534Z,4.50
2017-12-17T05:21:53.607Z,4.20
2017-12-17T05:22:53.612Z,3.10
2017-12-17T05:23:53.537Z,2.50
2017-12-17T05:24:53.569Z,2.90
2017-12-17T05:25:53.571Z,4.00
2017-12-17T05:26:53.570Z,2.90
2017-12-17T05:27:53.511Z,5.00
2017-12-17T05:28:53.567Z,2.90
2017-12-17T05:29:53.566Z,3.10
2017-12-17T05:30:53.478Z,3.80
2017-12-17T05:31:53.571Z,2.70
2017-12-17T05:32:53.556Z,2.50
2017-12-17T05:33:53.496Z,3.10
2017-12-17T05:34:53.615Z,2.70
2017-12-17T05:35:53.545Z,3.30
2017-12-17T05:36:53.617Z,2.50
2017-12-17T05:37:53.553Z,4.50
2017-12-17T05:38:53.547Z,2.70
2017-12-17T05:39:53.620Z,3.60
2017-12-17T05:40:53.548Z,3.50
2017-12-17T05:41:53.620Z,4.00
2017-12-17T05:42:53.563Z,2.70
2017-12-17T05:43:53.622Z,2.30
2017-12-17T05:44:53.545Z,2.90
2017-12-17T05:45:53.507Z,2.60
2017-12-17T05:46:53.574Z,3.60
2017-12-17T05:47:53.536Z,2.90
2017-12-17T05:48:53.554Z,3.00
2017-12-17T05:49:53.447Z,2.20
2017-12-17T05:50:53.510Z,2.40
2017-12-17T05:51:53.554Z,3.70
2017-12-17T05:52:53.562Z,3.10
2017-12-17T05:53:53.521Z,2.50
2017-12-17T05:54:53.627Z,3.30
2017-12-17T05:55:53.626Z,1.80
2017-12-17T05:56:53.630Z,2.50
2017-12-17T05:57:53.554Z,4.50
2017-12-17T05:58:53.629Z,4.90
2017-12-17T05:59:53.555Z,4.50
2017-12-17T06:00:53.556Z,3.30
2017-12-17T06:01:53.632Z,2.90
2017-12-17T06:02:53.561Z,3.30
2017-12-17T06:03:53.634Z,2.10
2017-12-17T06:04:53.635Z,2.50
2017-12-17T06:05:53.570Z,2.30
2017-12-17T06:06:53.634Z,3.50
2017-12-17T06:07:53.567Z,3.20
2017-12-17T06:08:53.635Z,2.90
2017-12-17T06:09:53.576Z,3.10
2017-12-17T06:10:53.638Z,3.30
2017-12-17T06:11:53.565Z,4.20
2017-12-17T06:12:53.644Z,4.70
2017-12-17T06:13:53.572Z,4.40
2017-12-17T06:14:53.544Z,4.30
2017-12-17T06:15:53.567Z,4.00
2017-12-17T06:16:53.583Z,2.70
2017-12-17T06:17:53.570Z,2.50
2017-12-17T06:18:53.526Z,4.20
2017-12-17T06:19:53.525Z,3.50
2017-12-17T06:20:53.526Z,4.00
2017-12-17T06:21:53.566Z,3.30
2017-12-17T06:22:53.621Z,3.50
2017-12-17T06:23:53.606Z,3.70
2017-12-17T06:24:53.652Z,4.00
2017-12-17T06:25:53.572Z,2.80
2017-12-17T06:26:53.652Z,3.10
2017-12-17T06:27:53.574Z,3.10
2017-12-17T06:28:53.647Z,2.50
2017-12-17T06:29:53.572Z,1.30
2017-12-17T06:30:53.648Z,3.10
2017-12-17T06:31:53.572Z,3.10
2017-12-17T06:32:53.562Z,3.50
2017-12-17T06:33:53.584Z,3.70
2017-12-17T06:34:53.650Z,2.60
2017-12-17T06:35:53.580Z,2.50
2017-12-17T06:36:53.650Z,2.70
2017-12-17T06:37:53.581Z,3.10
2017-12-17T06:38:53.654Z,3.00
2017-12-17T06:39:53.578Z,3.70
2017-12-17T06:40:53.577Z,3.30
2017-12-17T06:41:53.583Z,3.10
2017-12-17T06:42:53.657Z,2.70
2017-12-17T06:43:53.587Z,2.40
2017-12-17T06:44:53.620Z,3.70
2017-12-17T06:45:53.594Z,4.00
2017-12-17T06:46:53.570Z,3.40
2017-12-17T06:47:53.647Z,3.70
2017-12-17T06:48:53.642Z,3.70
2017-12-17T06:49:53.610Z,3.70
2017-12-17T06:50:53.642Z,4.20
2017-12-17T06:51:53.556Z,3.50
2017-12-17T06:52:53.557Z,2.90
2017-12-17T06:53:53.559Z,5.70
2017-12-17T06:54:53.661Z,3.80
2017-12-17T06:55:53.591Z,2.90
2017-12-17T06:56:53.662Z,3.50
2017-12-17T06:57:53.591Z,4.70
2017-12-17T06:58:53.677Z,3.50
2017-12-17T06:59:53.594Z,4.70
2017-12-17T07:00:53.667Z,3.80
2017-12-17T07:01:53.593Z,3.30
2017-12-17T07:02:53.670Z,4.20
2017-12-17T07:03:53.599Z,3.30
2017-12-17T07:04:53.534Z,5.00
2017-12-17T07:05:53.632Z,2.80
2017-12-17T07:06:53.534Z,3.50
2017-12-17T07:07:53.614Z,4.00
2017-12-17T07:08:53.595Z,2.80
2017-12-17T07:09:53.570Z,2.60
2017-12-17T07:10:53.633Z,3.00
2017-12-17T07:11:53.580Z,3.90
2017-12-17T07:12:53.633Z,3.70
2017-12-17T07:13:53.622Z,2.80
2017-12-17T07:14:53.679Z,2.40
2017-12-17T07:15:53.606Z,3.00
2017-12-17T07:16:53.677Z,2.40
2017-12-17T07:17:53.608Z,3.20
2017-12-17T07:18:53.608Z,3.40
2017-12-17T07:19:53.679Z,3.40
2017-12-17T07:20:53.678Z,4.10
2017-12-17T07:21:53.607Z,2.60
2017-12-17T07:22:53.680Z,3.90
2017-12-17T07:23:53.634Z,3.50
2017-12-17T07:24:53.675Z,3.90
2017-12-17T07:25:53.643Z,2.90
2017-12-17T07:26:53.588Z,3.50
2017-12-17T07:27:53.681Z,4.70
2017-12-17T07:28:53.563Z,3.00
2017-12-17T07:29:53.609Z,2.60
2017-12-17T07:30:53.562Z,3.40
2017-12-17T07:31:53.589Z,3.20
2017-12-17T07:32:53.564Z,3.00
2017-12-17T07:33:53.651Z,2.60
2017-12-17T07:34:53.688Z,4.10
2017-12-17T07:35:53.620Z,4.10
2017-12-17T07:36:53.613Z,2.50
2017-12-17T07:37:53.600Z,4.60
2017-12-17T07:38:53.612Z,3.10
2017-12-17T07:39:53.687Z,4.80
2017-12-17T07:40:53.689Z,3.60
2017-12-17T07:41:53.658Z,2.90
2017-12-17T07:42:53.691Z,2.80
2017-12-17T07:43:53.618Z,2.90
2017-12-17T07:44:53.664Z,2.60
2017-12-17T07:45:53.676Z,3.40
2017-12-17T07:46:53.596Z,2.70
2017-12-17T07:47:53.692Z,2.30
2017-12-17T07:48:53.609Z,3.40
2017-12-17T07:49:53.664Z,2.20
2017-12-17T07:50:53.574Z,2.40
2017-12-17T07:51:53.623Z,5.10
2017-12-17T07:52:53.881Z,4.40
2017-12-17T07:53:53.597Z,4.10
2017-12-17T07:54:53.697Z,2.40
2017-12-17T07:55:53.699Z,2.80
2017-12-17T07:56:53.624Z,2.00
2017-12-17T07:57:53.701Z,4.10
2017-12-17T07:58:53.634Z,3.30
2017-12-17T07:59:53.703Z,2.80
2017-12-17T08:00:53.638Z,3.90
2017-12-17T08:01:53.701Z,3.00
2017-12-17T08:02:53.704Z,2.60
2017-12-17T08:03:53.703Z,3.70
2017-12-17T08:04:53.699Z,4.40
2017-12-17T08:05:53.571Z,3.00
2017-12-17T08:06:53.610Z,4.20
2017-12-17T08:07:53.695Z,3.10
2017-12-17T08:08:53.704Z,4.20
2017-12-17T08:09:53.651Z,5.20
2017-12-17T08:10:53.693Z,4.10
2017-12-17T08:11:53.668Z,4.80
2017-12-17T08:12:53.703Z,5.10
2017-12-17T08:13:53.711Z,3.60
2017-12-17T08:14:53.710Z,2.20
2017-12-17T08:15:53.637Z,3.80
2017-12-17T08:16:53.711Z,3.60
2017-12-17T08:17:53.644Z,4.80
2017-12-17T08:18:53.713Z,3.00
2017-12-17T08:19:53.639Z,1.30
2017-12-17T08:20:53.713Z,2.90
2017-12-17T08:21:53.713Z,3.80
2017-12-17T08:22:53.648Z,3.40
2017-12-17T08:23:53.715Z,3.60
2017-12-17T08:24:53.641Z,2.80
2017-12-17T08:25:53.590Z,3.40
2017-12-17T08:26:53.678Z,4.20
2017-12-17T08:27:53.623Z,3.90
2017-12-17T08:28:53.591Z,4.10
2017-12-17T08:29:53.680Z,3.20
2017-12-17T08:30:53.656Z,2.20
2017-12-17T08:31:53.593Z,3.00
2017-12-17T08:32:53.686Z,3.30
2017-12-17T08:33:53.711Z,2.30
2017-12-17T08:34:53.664Z,2.30
2017-12-17T08:35:53.665Z,2.20
2017-12-17T08:36:53.725Z,1.60
2017-12-17T08:37:53.692Z,2.10
2017-12-17T08:38:53.636Z,3.10
2017-12-17T08:39:53.647Z,3.30
2017-12-17T08:40:53.604Z,2.90
2017-12-17T08:41:53.668Z,2.60
2017-12-17T08:42:53.725Z,2.00
2017-12-17T08:43:53.729Z,2.70
2017-12-17T08:44:53.727Z,2.70
2017-12-17T08:45:53.651Z,2.30
2017-12-17T08:46:53.730Z,2.10
2017-12-17T08:47:53.664Z,3.30
2017-12-17T08:48:53.731Z,2.90
2017-12-17T08:49:53.730Z,3.60
2017-12-17T08:50:53.735Z,2.30
2017-12-17T08:51:53.656Z,3.10
2017-12-17T08:52:53.770Z,3.30
2017-12-17T08:53:53.659Z,2.80
2017-12-17T08:54:53.751Z,5.10
2017-12-17T08:55:53.613Z,4.00
2017-12-17T08:56:53.664Z,2.70
2017-12-17T08:57:53.610Z,2.00
2017-12-17T08:58:53.557Z,2.10
2017-12-17T08:59:53.654Z,3.10
2017-12-17T09:00:53.556Z,3.10
2017-12-17T09:01:53.609Z,2.90
2017-12-17T09:02:53.555Z,3.50
2017-12-17T09:03:53.560Z,3.60
2017-12-17T09:04:53.604Z,2.20
2017-12-17T09:05:53.640Z,3.10
2017-12-17T09:06:53.722Z,2.60
2017-12-17T09:07:53.682Z,2.90
2017-12-17T09:08:53.619Z,2.30
2017-12-17T09:09:53.679Z,2.50
2017-12-17T09:10:53.615Z,3.20
2017-12-17T09:11:53.670Z,2.40
2017-12-17T09:12:53.686Z,3.70
2017-12-17T09:13:53.657Z,3.10
2017-12-17T09:14:53.617Z,2.20
2017-12-17T09:15:53.675Z,1.70
2017-12-17T09:16:53.751Z,1.40
2017-12-17T09:17:53.680Z,2.50
2017-12-17T09:18:53.750Z,2.10
2017-12-17T09:19:53.677Z,2.70
2017-12-17T09:20:53.749Z,2.20
2017-12-17T09:21:53.673Z,3.40
2017-12-17T09:22:53.679Z,2.60
2017-12-17T09:23:53.755Z,3.20
2017-12-17T09:24:53.754Z,2.80
2017-12-17T09:25:53.695Z,2.60
2017-12-17T09:26:53.713Z,2.00
2017-12-17T09:27:53.729Z,1.30
2017-12-17T09:28:53.676Z,1.80
2017-12-17T09:29:53.711Z,2.30
2017-12-17T09:30:53.641Z,3.30
2017-12-17T09:31:53.719Z,2.10
2017-12-17T09:32:53.681Z,1.40
2017-12-17T09:33:53.684Z,2.30
2017-12-17T09:34:53.712Z,3.30
2017-12-17T09:35:53.705Z,2.80
2017-12-17T09:36:53.619Z,2.10
2017-12-17T09:37:53.629Z,3.20
2017-12-17T09:38:53.722Z,2.60
2017-12-17T09:39:53.696Z,2.70
2017-12-17T09:40:53.750Z,3.20
2017-12-17T09:41:53.701Z,3.10
2017-12-17T09:42:53.751Z,3.10
2017-12-17T09:43:53.706Z,3.10
2017-12-17T09:44:53.673Z,1.60
2017-12-17T09:45:53.763Z,3.30
2017-12-17T09:46:53.689Z,1.80
2017-12-17T09:47:53.698Z,3.60
2017-12-17T09:48:53.917Z,2.70
2017-12-17T09:49:53.690Z,2.60
2017-12-17T09:50:53.765Z,1.60
2017-12-17T09:51:53.681Z,2.30
2017-12-17T09:52:53.771Z,1.70
2017-12-17T09:53:53.693Z,2.60
2017-12-17T09:54:53.773Z,2.90
2017-12-17T09:55:53.774Z,2.80
2017-12-17T09:56:53.697Z,2.20
2017-12-17T09:57:53.771Z,3.20
2017-12-17T09:58:53.701Z,2.40
2017-12-17T09:59:53.815Z,3.60
2017-12-17T10:00:53.704Z,3.60
2017-12-17T10:01:53.775Z,1.70
2017-12-17T10:02:53.706Z,3.70
2017-12-17T10:03:53.707Z,3.00
2017-12-17T10:04:53.778Z,3.90
2017-12-17T10:05:53.714Z,3.20
2017-12-17T10:06:53.686Z,2.00
2017-12-17T10:07:53.715Z,3.60
2017-12-17T10:08:53.683Z,2.40
2017-12-17T10:09:53.775Z,3.40
2017-12-17T10:10:53.653Z,3.20
2017-12-17T10:11:53.730Z,2.00
2017-12-17T10:12:53.655Z,3.00
2017-12-17T10:13:53.922Z,2.10
2017-12-17T10:14:53.766Z,1.70
2017-12-17T10:15:53.785Z,2.10
2017-12-17T10:16:53.783Z,1.60
2017-12-17T10:17:53.706Z,1.60
2017-12-17T10:18:53.785Z,1.00
2017-12-17T10:19:53.710Z,1.90
2017-12-17T10:20:53.787Z,1.60
2017-12-17T10:21:53.710Z,1.70
2017-12-17T10:22:53.719Z,1.40
2017-12-17T10:23:53.788Z,1.80
2017-12-17T10:24:53.709Z,1.80
2017-12-17T10:25:53.722Z,3.50
2017-12-17T10:26:53.691Z,4.10
2017-12-17T10:27:53.713Z,2.40
2017-12-17T10:28:53.736Z,2.10
2017-12-17T10:29:53.703Z,2.10
2017-12-17T10:30:53.752Z,2.90
2017-12-17T10:31:53.754Z,2.30
2017-12-17T10:32:53.680Z,3.10
2017-12-17T10:33:53.660Z,1.80
2017-12-17T10:34:53.697Z,2.50
2017-12-17T10:35:53.794Z,2.50
2017-12-17T10:36:53.705Z,1.60
2017-12-17T10:37:53.708Z,1.70
2017-12-17T10:38:53.706Z,3.80
2017-12-17T10:39:53.744Z,2.90
2017-12-17T10:40:53.756Z,3.10
2017-12-17T10:41:53.706Z,2.00
2017-12-17T10:42:53.737Z,2.70
2017-12-17T10:43:53.678Z,3.60
2017-12-17T10:44:53.803Z,4.00
2017-12-17T10:45:53.733Z,3.30
2017-12-17T10:46:53.803Z,4.50
2017-12-17T10:47:53.727Z,4.50
2017-12-17T10:48:53.771Z,2.10
2017-12-17T10:49:53.734Z,2.00
2017-12-17T10:50:53.804Z,4.60
2017-12-17T10:51:53.737Z,3.10
2017-12-17T10:52:53.838Z,2.30
2017-12-17T10:53:53.732Z,2.30
2017-12-17T10:54:53.808Z,1.80
2017-12-17T10:55:53.731Z,2.50
2017-12-17T10:56:53.809Z,3.20
2017-12-17T10:57:53.744Z,2.90
2017-12-17T10:58:53.808Z,3.80
2017-12-17T10:59:53.742Z,2.70
2017-12-17T11:00:53.816Z,1.70
2017-12-17T11:01:53.744Z,2.40
2017-12-17T11:02:53.820Z,2.70
2017-12-17T11:03:53.753Z,2.50
2017-12-17T11:04:53.813Z,2.80
2017-12-17T11:05:53.813Z,2.50
2017-12-17T11:06:53.808Z,2.00
2017-12-17T11:07:53.765Z,2.20
2017-12-17T11:08:53.738Z,1.50
2017-12-17T11:09:53.709Z,1.80
2017-12-17T11:10:53.727Z,1.80
2017-12-17T11:11:53.755Z,2.10
2017-12-17T11:12:53.813Z,2.10
2017-12-17T11:13:53.812Z,2.40
2017-12-17T11:14:53.819Z,2.90
2017-12-17T11:15:53.819Z,2.90
2017-12-17T11:16:53.742Z,1.40
2017-12-17T11:17:53.816Z,2.30
2017-12-17T11:18:53.821Z,2.10
2017-12-17T11:19:53.747Z,3.50
2017-12-17T11:20:53.822Z,3.30
2017-12-17T11:21:53.746Z,2.10
2017-12-17T11:22:53.823Z,1.50
2017-12-17T11:23:53.784Z,1.80
2017-12-17T11:24:53.822Z,1.30
2017-12-17T11:25:53.782Z,0.90
2017-12-17T11:26:53.692Z,0.60
2017-12-17T11:27:53.783Z,2.00
2017-12-17T11:28:53.695Z,1.80
2017-12-17T11:29:53.690Z,1.30
2017-12-17T11:30:53.764Z,2.00
2017-12-17T11:31:53.722Z,1.20
2017-12-17T11:32:53.740Z,2.70
2017-12-17T11:33:53.789Z,2.20
2017-12-17T11:34:53.724Z,1.30
2017-12-17T11:35:53.829Z,1.20
2017-12-17T11:36:53.831Z,1.40
2017-12-17T11:37:53.828Z,0.70
2017-12-17T11:38:53.833Z,1.40
2017-12-17T11:39:53.828Z,2.60
2017-12-17T11:40:53.757Z,0.60
2017-12-17T11:41:53.834Z,1.00
2017-12-17T11:42:53.747Z,1.10
2017-12-17T11:43:53.831Z,3.70
2017-12-17T11:44:53.836Z,3.00
2017-12-17T11:45:53.827Z,2.20
2017-12-17T11:46:53.718Z,2.20
2017-12-17T11:47:53.792Z,2.60
2017-12-17T11:48:53.834Z,1.20
2017-12-17T11:49:53.801Z,2.40
2017-12-17T11:50:53.814Z,1.40
2017-12-17T11:51:53.765Z,1.40
2017-12-17T11:52:53.832Z,0.90
2017-12-17T11:53:53.810Z,1.30
2017-12-17T11:54:53.833Z,1.70
2017-12-17T11:55:53.758Z,1.50
2017-12-17T11:56:53.845Z,1.60
2017-12-17T11:57:53.772Z,1.40
2017-12-17T11:58:53.844Z,1.10
2017-12-17T11:59:53.769Z,1.50
2017-12-17T12:00:53.843Z,1.10
2017-12-17T12:01:53.770Z,1.00
2017-12-17T12:02:53.847Z,1.10
2017-12-17T12:03:53.770Z,2.00
2017-12-17T12:04:53.847Z,1.50
2017-12-17T12:05:53.851Z,1.80
2017-12-17T12:06:53.844Z,1.50
2017-12-17T12:07:53.850Z,1.10
2017-12-17T12:08:53.779Z,1.90
2017-12-17T12:09:53.852Z,1.30
2017-12-17T12:10:53.848Z,1.40
2017-12-17T12:11:53.778Z,1.10
2017-12-17T12:12:53.852Z,1.20
2017-12-17T12:13:53.778Z,1.90
2017-12-17T12:14:53.855Z,1.70
2017-12-17T12:15:53.765Z,1.20
2017-12-17T12:16:53.853Z,1.90
2017-12-17T12:17:53.853Z,1.40
2017-12-17T12:18:53.758Z,1.20
2017-12-17T12:19:53.739Z,1.60
2017-12-17T12:20:53.730Z,1.10
2017-12-17T12:21:53.827Z,1.40
2017-12-17T12:22:53.784Z,0.60
2017-12-17T12:23:53.829Z,1.60
2017-12-17T12:24:53.800Z,0.80
2017-12-17T12:25:53.822Z,1.10
2017-12-17T12:26:53.803Z,1.20
2017-12-17T12:27:53.828Z,0.50
2017-12-17T12:28:53.798Z,0.80
2017-12-17T12:29:53.847Z,1.40
2017-12-17T12:30:53.858Z,2.30
2017-12-17T12:31:53.827Z,0.40
2017-12-17T12:32:53.804Z,0.80
2017-12-17T12:33:53.859Z,0.90
2017-12-17T12:34:53.775Z,0.80
2017-12-17T12:35:53.808Z,0.90
2017-12-17T12:36:53.766Z,1.20
2017-12-17T12:37:53.766Z,1.70
2017-12-17T12:38:53.859Z,0.60
2017-12-17T12:39:53.855Z,0.60
2017-12-17T12:40:53.858Z,0.80
2017-12-17T12:41:53.744Z,0.90
2017-12-17T12:42:53.750Z,0.40
2017-12-17T12:43:53.873Z,0.50
2017-12-17T12:44:53.745Z,0.30
2017-12-17T12:45:53.833Z,0.50
2017-12-17T12:46:53.755Z,0.70
2017-12-17T12:47:53.757Z,1.10
2017-12-17T12:48:53.787Z,2.40
2017-12-17T12:49:53.839Z,1.50
2017-12-17T12:50:53.800Z,2.00
2017-12-17T12:51:53.738Z,1.50
2017-12-17T12:52:53.800Z,0.80
2017-12-17T12:53:53.801Z,0.70
2017-12-17T12:54:53.742Z,1.30
2017-12-17T12:55:53.842Z,1.60
2017-12-17T12:56:53.845Z,1.60
2017-12-17T12:57:53.819Z,2.40
2017-12-17T12:58:53.865Z,2.00
2017-12-17T12:59:53.826Z,2.20
2017-12-17T13:00:53.782Z,0.90
2017-12-17T13:01:53.805Z,1.20
2017-12-17T13:02:53.824Z,1.30
2017-12-17T13:03:53.832Z,1.50
2017-12-17T13:04:53.851Z,2.00
2017-12-17T13:05:53.790Z,3.10
2017-12-17T13:06:53.845Z,2.70
2017-12-17T13:07:53.843Z,2.00
2017-12-17T13:08:53.785Z,1.20
2017-12-17T13:09:53.767Z,1.20
2017-12-17T13:10:53.885Z,1.70
2017-12-17T13:11:53.768Z,2.00
2017-12-17T13:12:53.755Z,1.50
2017-12-17T13:13:53.785Z,1.30
2017-12-17T13:14:53.851Z,0.90
2017-12-17T13:15:53.814Z,1.70
2017-12-17T13:16:53.890Z,2.00
2017-12-17T13:17:53.843Z,1.50
2017-12-17T13:18:53.892Z,2.20